Aérodrome :
LOGIN :

S'inscrire | Disclaimer

   EN    FR    IT 

 










Légende :    VFR   VFR Marginal   IFR   IFR Intensif   IFR Très Intensif
Visi : 
Plafond : 
>= 8 km
>= 3000ft
5 à 8 km
1000 à 3000 ft
1500m à 5 km
500 à 1000 ft
800 à 1500m
200 à 500 ft
< 800m
< 200 ft
Symboles :   Orages  Brouillard  Fortes neiges  Fortes précipitations  Vent > 20 kt
SIGMETs :   Divers  Orages  Givrage  Turbulence  Onde Orograph.  Cendres Volcan.






- Altitude de l'aérodrome : 779 ft
- Code IATA : CMF


LFLB - Chambery / Aix-Les-Bains

DERNIER METAR :
  • 131700Z AUTO VRB02KT CAVOK 02/01 Q1007 NOSIG

METARs EXPIRÉS :
  • 131630Z AUTO VRB02KT CAVOK 03/M00 Q1007 NOSIG
  • 131600Z AUTO 16004KT CAVOK 04/01 Q1007 NOSIG
  • 131530Z AUTO 28002KT CAVOK 06/02 Q1007 NOSIG
  • 131500Z AUTO VRB02KT CAVOK 08/01 Q1007 NOSIG
  • 131430Z AUTO 36006KT 320V020 CAVOK 09/02 Q1007 NOSIG

TAF TAF LFLB
Valide du 13 à 12h jusqu'au 14 à 12h UTC


131100Z 1312/1412 34005KT 9999 SCT020
BECMG 1315/1317 18005KT
BECMG 1404/1406 4000 RA SCT015 BKN050TCU
BECMG 1408/1410 34010KT SCT014



MET'MAP, la Météo Aéronautique d'un coup d'oeil ! - Copyright ORBIFLY Décembre 2007 - Disclaimer

ORBIFLY MET'MAP TEAM :

Programmation & Développement : Alexandra Zaïnal
Conception & Développement : Baudouin d'Aumeries
Co-Programmation & Développement : Marc-Olivier Méhu
Soutien technique & logistique : Manuel Goepfert

Contact : metmap@orbifly.com




SOURCES & CREDITS :

   NOAA